Time;durP1;ratioP1;P1;durP2;ratioP2;P2;SDS_P1;SDS_P2;PMS_P1;PMS_P2;Temp;Humidity;BMP_temperature;BMP_pressure;BME280_temperature;BME280_humidity;BME280_pressure;Samples;Min_cycle;Max_cycle;Signal;HPM_P1;HPM_P2
2022/04/13 00:00:46;;;;;;;16.58;5.88;;;14.10;99.90;;;;;;5051339;28;20013;-64
2022/04/13 00:03:11;;;;;;;11.70;4.38;;;14.20;99.90;;;;;;5050973;28;20028;-64
2022/04/13 00:05:37;;;;;;;9.40;4.03;;;14.20;99.90;;;;;;5051556;28;20036;-66
2022/04/13 00:08:06;;;;;;;14.07;4.35;;;14.20;99.90;;;;;;5051455;28;20047;-63
2022/04/13 00:10:35;;;;;;;15.13;4.78;;;14.20;99.90;;;;;;5051748;28;20079;-64
2022/04/13 00:13:01;;;;;;;14.43;4.55;;;14.30;99.90;;;;;;5054638;28;20025;-64
2022/04/13 00:15:27;;;;;;;14.30;4.60;;;14.30;99.90;;;;;;5048514;28;20024;-66
2022/04/13 00:17:52;;;;;;;14.23;4.75;;;14.40;99.90;;;;;;5054970;28;20025;-63
2022/04/13 00:20:18;;;;;;;13.38;3.70;;;14.40;99.90;;;;;;5053784;28;20082;-68
2022/04/13 00:22:43;;;;;;;15.20;5.43;;;14.40;99.90;;;;;;5051684;28;20093;-68
2022/04/13 00:25:09;;;;;;;11.15;4.30;;;14.40;99.90;;;;;;5055232;28;20376;-65
2022/04/13 00:27:35;;;;;;;18.60;4.70;;;14.50;99.90;;;;;;5054432;28;20438;-66
2022/04/13 00:30:00;;;;;;;16.70;5.15;;;14.50;99.90;;;;;;5054671;28;20037;-63
2022/04/13 00:32:26;;;;;;;15.60;4.10;;;14.50;99.90;;;;;;5053152;28;20032;-66
2022/04/13 00:34:52;;;;;;;11.35;4.20;;;14.50;99.90;;;;;;5054626;28;20043;-62
2022/04/13 00:37:17;;;;;;;12.35;4.60;;;14.60;99.90;;;;;;5053199;28;20115;-67
2022/04/13 00:39:43;;;;;;;15.73;5.32;;;14.60;99.90;;;;;;5054452;28;20025;-67
2022/04/13 00:42:09;;;;;;;15.38;4.93;;;14.60;99.90;;;;;;5054656;28;20017;-67
2022/04/13 00:44:35;;;;;;;13.13;3.58;;;14.60;99.90;;;;;;5053330;28;20075;-65
2022/04/13 00:47:06;;;;;;;12.52;3.67;;;14.70;99.90;;;;;;5053566;28;20021;-63
2022/04/13 00:49:31;;;;;;;9.70;3.40;;;14.60;99.90;;;;;;5054438;28;20045;-65
2022/04/13 00:51:59;;;;;;;12.15;4.22;;;14.70;99.90;;;;;;5054466;28;20065;-64
2022/04/13 00:54:28;;;;;;;9.88;4.05;;;14.70;99.90;;;;;;5053949;28;20127;-64
2022/04/13 00:56:56;;;;;;;9.75;4.10;;;14.70;99.90;;;;;;5053745;28;20035;-64
2022/04/13 00:59:24;;;;;;;11.95;3.83;;;14.70;99.90;;;;;;5054444;28;20137;-67
2022/04/13 01:01:53;;;;;;;14.93;5.10;;;14.70;99.90;;;;;;5053989;28;20024;-63
2022/04/13 01:04:19;;;;;;;14.68;4.80;;;14.70;99.90;;;;;;5054281;28;20021;-64
2022/04/13 01:06:45;;;;;;;14.45;4.43;;;14.70;99.90;;;;;;5054436;28;20025;-65
2022/04/13 01:09:13;;;;;;;14.80;5.40;;;14.70;99.90;;;;;;5054299;28;20031;-66
2022/04/13 01:11:39;;;;;;;16.77;5.18;;;14.70;99.90;;;;;;5054156;28;20555;-65
2022/04/13 01:14:05;;;;;;;18.63;5.50;;;14.60;99.90;;;;;;5054157;28;20040;-67
2022/04/13 01:16:32;;;;;;;14.63;5.80;;;14.60;99.90;;;;;;5053370;28;20021;-66
2022/04/13 01:18:58;;;;;;;14.93;5.03;;;14.60;99.90;;;;;;5036732;28;20372;-65
2022/04/13 01:21:47;;;;;;;12.43;4.53;;;14.60;99.90;;;;;;5054056;28;20449;-66
2022/04/13 01:24:14;;;;;;;12.88;5.15;;;14.60;99.90;;;;;;5052488;28;20032;-66
2022/04/13 01:26:40;;;;;;;16.52;5.13;;;14.50;99.90;;;;;;5053033;28;20032;-63
2022/04/13 01:29:06;;;;;;;13.57;5.13;;;14.60;99.90;;;;;;5053392;28;20112;-65
2022/04/13 01:31:33;;;;;;;16.75;5.53;;;14.50;99.90;;;;;;5053426;28;20441;-64
2022/04/13 01:33:59;;;;;;;13.20;5.22;;;14.60;99.90;;;;;;5051889;28;20033;-65
2022/04/13 01:36:25;;;;;;;18.63;5.53;;;14.60;99.90;;;;;;5053539;28;20028;-66
2022/04/13 01:38:51;;;;;;;13.27;5.10;;;14.60;99.90;;;;;;5053591;28;20029;-66
2022/04/13 01:41:17;;;;;;;14.55;5.05;;;14.50;99.90;;;;;;5053529;28;20028;-65
2022/04/13 01:43:43;;;;;;;11.63;5.28;;;14.60;99.90;;;;;;5051486;28;20380;-63
2022/04/13 01:46:08;;;;;;;14.35;5.47;;;14.60;99.90;;;;;;5053386;28;20036;-66
2022/04/13 01:48:34;;;;;;;14.75;5.60;;;14.60;99.90;;;;;;5053059;28;20078;-63
2022/04/13 01:50:59;;;;;;;17.30;5.97;;;14.60;99.90;;;;;;5053502;28;20433;-67
2022/04/13 01:53:26;;;;;;;12.05;5.18;;;14.60;99.90;;;;;;5052798;28;20036;-66
2022/04/13 01:55:53;;;;;;;15.90;5.88;;;14.60;99.90;;;;;;5052794;28;20056;-64
2022/04/13 01:58:20;;;;;;;17.30;5.75;;;14.60;99.90;;;;;;5053332;28;20060;-63
2022/04/13 02:00:45;;;;;;;14.40;5.28;;;14.60;99.90;;;;;;5052655;28;20111;-64
2022/04/13 02:03:11;;;;;;;17.02;5.72;;;14.70;99.90;;;;;;5052405;28;20109;-67
2022/04/13 02:05:36;;;;;;;13.35;5.45;;;14.60;99.90;;;;;;5053031;28;20523;-66
2022/04/13 02:08:02;;;;;;;13.35;4.57;;;14.60;99.90;;;;;;5053025;28;20096;-63
2022/04/13 02:10:28;;;;;;;10.23;4.82;;;14.60;99.90;;;;;;5053067;28;20368;-68
2022/04/13 02:12:53;;;;;;;11.18;4.88;;;14.50;99.90;;;;;;5051585;28;20025;-68
2022/04/13 02:15:19;;;;;;;8.45;3.88;;;14.50;99.90;;;;;;5047711;28;20048;-66
2022/04/13 02:17:45;;;;;;;13.95;4.43;;;14.40;99.90;;;;;;5050785;28;20060;-67
2022/04/13 02:20:11;;;;;;;14.95;5.88;;;14.30;99.90;;;;;;5052785;28;20066;-63
2022/04/13 02:22:36;;;;;;;16.60;5.68;;;14.20;99.90;;;;;;5052761;28;20089;-67
2022/04/13 02:25:04;;;;;;;19.83;6.55;;;14.20;99.90;;;;;;5052383;28;20024;-63
2022/04/13 02:27:30;;;;;;;14.85;5.80;;;14.10;99.90;;;;;;5052798;28;20511;-65
2022/04/13 02:29:55;;;;;;;13.88;6.85;;;14.10;99.90;;;;;;5052072;28;20041;-64
2022/04/13 02:32:21;;;;;;;20.95;7.05;;;14.10;99.90;;;;;;5052673;28;20028;-64
2022/04/13 02:34:48;;;;;;;17.80;7.88;;;14.10;99.90;;;;;;5051975;28;20056;-64
2022/04/13 02:37:17;;;;;;;17.05;6.43;;;14.00;99.90;;;;;;5052575;28;20029;-64
2022/04/13 02:39:44;;;;;;;22.65;8.57;;;14.00;99.90;;;;;;5050187;28;20124;-66
2022/04/13 02:42:14;;;;;;;18.80;8.43;;;14.00;99.90;;;;;;5037994;28;20028;-66
2022/04/13 02:44:40;;;;;;;22.90;8.32;;;13.90;99.90;;;;;;5052235;28;20033;-63
2022/04/13 02:47:06;;;;;;;19.08;7.93;;;13.90;99.90;;;;;;5052458;28;20086;-66
2022/04/13 02:49:31;;;;;;;19.25;8.48;;;13.90;99.90;;;;;;5052922;28;20032;-63
2022/04/13 02:51:57;;;;;;;18.05;8.10;;;13.90;99.90;;;;;;5052422;28;20104;-65
2022/04/13 02:54:22;;;;;;;22.13;9.05;;;13.80;99.90;;;;;;5052312;28;20021;-64
2022/04/13 02:56:48;;;;;;;23.45;8.07;;;13.80;99.90;;;;;;5052150;28;20029;-64
2022/04/13 02:59:14;;;;;;;26.55;9.82;;;13.80;99.90;;;;;;5052549;28;20338;-66
2022/04/13 03:01:42;;;;;;;21.85;9.23;;;13.80;99.90;;;;;;5051177;28;20461;-63
2022/04/13 03:04:07;;;;;;;26.42;9.95;;;13.80;99.90;;;;;;5050128;28;20047;-64
2022/04/13 03:06:33;;;;;;;21.42;9.18;;;13.70;99.90;;;;;;5050585;28;20108;-66
2022/04/13 03:08:58;;;;;;;21.98;8.20;;;13.70;99.90;;;;;;5052107;28;20032;-63
2022/04/13 03:11:24;;;;;;;19.33;8.98;;;13.60;99.90;;;;;;5051624;28;20040;-64
2022/04/13 03:13:50;;;;;;;19.73;6.75;;;13.60;99.90;;;;;;5052209;28;20488;-67
2022/04/13 03:16:15;;;;;;;25.95;10.48;;;13.50;99.90;;;;;;5051771;28;20037;-66
2022/04/13 03:18:41;;;;;;;24.38;10.25;;;13.50;99.90;;;;;;5049097;28;20052;-65
2022/04/13 03:21:06;;;;;;;18.58;7.57;;;13.50;99.90;;;;;;5051953;28;20028;-65
2022/04/13 03:23:32;;;;;;;20.92;9.85;;;13.60;99.90;;;;;;5051441;28;20100;-65
2022/04/13 03:25:57;;;;;;;23.02;7.28;;;13.60;99.90;;;;;;5051331;28;20053;-68
2022/04/13 03:28:24;;;;;;;20.40;9.05;;;13.60;99.90;;;;;;5051068;28;20032;-66
2022/04/13 03:30:51;;;;;;;23.73;9.43;;;13.60;99.90;;;;;;5050661;28;20517;-65
2022/04/13 03:33:19;;;;;;;16.98;6.90;;;13.60;99.90;;;;;;5051935;28;20021;-66
2022/04/13 03:35:45;;;;;;;21.67;9.43;;;13.60;99.90;;;;;;5052194;28;20029;-62
2022/04/13 03:38:10;;;;;;;22.27;10.32;;;13.60;99.90;;;;;;5051360;28;20381;-66
2022/04/13 03:40:36;;;;;;;21.50;9.05;;;13.60;99.90;;;;;;5052270;28;20025;-67
2022/04/13 03:43:02;;;;;;;21.15;7.63;;;13.60;99.90;;;;;;5051223;28;20104;-67
2022/04/13 03:45:27;;;;;;;23.13;9.43;;;13.60;99.90;;;;;;5051635;28;20096;-67
2022/04/13 03:47:53;;;;;;;25.08;8.48;;;13.50;99.90;;;;;;5055296;28;20024;-65
2022/04/13 03:50:18;;;;;;;16.45;6.68;;;13.50;99.90;;;;;;5055285;28;20516;-63
2022/04/13 03:52:44;;;;;;;23.95;8.60;;;13.50;99.90;;;;;;5055800;28;20100;-63
2022/04/13 03:55:13;;;;;;;22.05;9.45;;;13.50;99.90;;;;;;5055362;28;20031;-63
2022/04/13 03:57:39;;;;;;;25.38;9.60;;;13.50;99.90;;;;;;5055562;28;20017;-66
2022/04/13 04:00:06;;;;;;;18.08;7.43;;;13.50;99.90;;;;;;5054831;28;20405;-63
2022/04/13 04:02:33;;;;;;;23.42;11.95;;;13.50;99.90;;;;;;5054647;28;20021;-63
2022/04/13 04:05:02;;;;;;;23.05;9.05;;;13.50;99.90;;;;;;5053907;28;20017;-63
2022/04/13 04:07:28;;;;;;;21.27;8.95;;;13.50;99.90;;;;;;5055346;28;20017;-64
2022/04/13 04:09:53;;;;;;;23.73;10.07;;;13.50;99.90;;;;;;5055351;28;20441;-65
2022/04/13 04:12:19;;;;;;;20.42;7.32;;;13.50;99.90;;;;;;5055434;28;20025;-63
2022/04/13 04:14:44;;;;;;;24.48;11.85;;;13.50;99.90;;;;;;5054643;28;20025;-64
2022/04/13 04:17:10;;;;;;;22.58;10.07;;;13.50;99.90;;;;;;5055287;28;20025;-65
2022/04/13 04:19:37;;;;;;;23.38;9.30;;;13.50;99.90;;;;;;5054860;28;20489;-63
2022/04/13 04:22:02;;;;;;;21.27;9.93;;;13.50;99.90;;;;;;5053869;28;20028;-64
2022/04/13 04:24:28;;;;;;;20.52;8.25;;;13.50;99.90;;;;;;5054587;28;20025;-61
2022/04/13 04:26:54;;;;;;;22.80;10.20;;;13.50;99.90;;;;;;5055041;28;20124;-63
2022/04/13 04:29:19;;;;;;;18.85;8.57;;;13.50;99.90;;;;;;5055254;28;20028;-66
2022/04/13 04:31:51;;;;;;;19.45;8.38;;;13.50;99.90;;;;;;5055139;28;20036;-66
2022/04/13 04:34:18;;;;;;;21.52;8.68;;;13.50;99.90;;;;;;5055009;28;20048;-65
2022/04/13 04:36:44;;;;;;;16.15;8.25;;;13.40;99.90;;;;;;5053965;28;20020;-63
2022/04/13 04:39:10;;;;;;;20.45;8.88;;;13.40;99.90;;;;;;5055261;28;20036;-67
2022/04/13 04:41:35;;;;;;;19.25;8.50;;;13.40;99.90;;;;;;5054848;28;20100;-67
2022/04/13 04:44:01;;;;;;;22.33;8.45;;;13.40;99.90;;;;;;5055065;28;20033;-63
2022/04/13 04:46:27;;;;;;;22.98;8.77;;;13.40;99.90;;;;;;5054886;28;20025;-65
2022/04/13 04:48:53;;;;;;;21.30;9.50;;;13.40;99.90;;;;;;5055277;28;20025;-65
2022/04/13 04:51:19;;;;;;;22.52;9.45;;;13.30;99.90;;;;;;5053552;28;20433;-66
2022/04/13 04:53:47;;;;;;;24.45;9.20;;;13.30;99.90;;;;;;5054927;28;20039;-66
2022/04/13 04:56:13;;;;;;;19.52;8.43;;;13.10;99.90;;;;;;5055033;28;20021;-66
2022/04/13 04:58:39;;;;;;;22.35;9.63;;;13.10;99.90;;;;;;5054564;28;20461;-65
2022/04/13 05:01:04;;;;;;;25.67;10.48;;;13.00;99.90;;;;;;5054587;28;20039;-66
2022/04/13 05:03:31;;;;;;;20.05;8.75;;;13.00;99.90;;;;;;5054339;28;20021;-64
2022/04/13 05:05:56;;;;;;;21.45;9.45;;;12.90;99.90;;;;;;5054819;28;20031;-65
2022/04/13 05:08:22;;;;;;;23.17;9.13;;;12.80;99.90;;;;;;5054512;28;20021;-66
2022/04/13 05:10:51;;;;;;;20.67;8.65;;;12.80;99.90;;;;;;5054477;28;20056;-63
2022/04/13 05:13:21;;;;;;;22.77;9.13;;;12.70;99.90;;;;;;5054695;28;20071;-65
2022/04/13 05:15:47;;;;;;;24.60;10.80;;;12.70;99.90;;;;;;5054793;28;20085;-63
2022/04/13 05:18:13;;;;;;;24.60;9.98;;;12.60;99.90;;;;;;5054639;28;20476;-64
2022/04/13 05:20:40;;;;;;;26.30;10.30;;;12.60;99.90;;;;;;5054671;28;20468;-63
2022/04/13 05:23:06;;;;;;;26.17;12.20;;;12.60;99.90;;;;;;5054069;28;20032;-67
2022/04/13 05:25:32;;;;;;;31.17;12.52;;;12.60;99.90;;;;;;5053965;28;20360;-66
2022/04/13 05:27:57;;;;;;;26.50;12.02;;;12.60;99.90;;;;;;5052251;28;20021;-67
2022/04/13 05:30:23;;;;;;;32.03;13.45;;;12.50;99.90;;;;;;5053569;28;20032;-66
2022/04/13 05:32:59;;;;;;;26.33;12.30;;;12.50;99.90;;;;;;5053513;28;20017;-64
2022/04/13 05:35:28;;;;;;;26.92;10.38;;;12.50;99.90;;;;;;5054030;28;20050;-64
2022/04/13 05:37:56;;;;;;;26.73;11.88;;;12.40;99.90;;;;;;5054071;28;20426;-66
2022/04/13 05:40:23;;;;;;;25.83;11.85;;;12.40;99.90;;;;;;5053550;28;20017;-66
2022/04/13 05:42:50;;;;;;;25.58;10.65;;;12.40;99.90;;;;;;5054271;28;20033;-64
2022/04/13 05:45:16;;;;;;;23.20;11.10;;;12.50;99.90;;;;;;5053312;28;20480;-65
2022/04/13 05:47:43;;;;;;;22.45;10.00;;;12.50;99.90;;;;;;5053824;28;20198;-65
2022/04/13 05:50:10;;;;;;;24.67;10.48;;;12.50;99.90;;;;;;5053245;28;20032;-65
2022/04/13 05:52:36;;;;;;;26.25;10.75;;;12.50;99.90;;;;;;5053098;28;20103;-67
2022/04/13 05:55:03;;;;;;;21.70;9.27;;;12.60;99.90;;;;;;5052304;28;20029;-67
2022/04/13 05:57:29;;;;;;;18.58;8.52;;;12.60;99.90;;;;;;5053351;28;20040;-67
2022/04/13 05:59:54;;;;;;;21.92;9.73;;;12.80;99.90;;;;;;5053944;28;20033;-66
2022/04/13 06:02:20;;;;;;;24.10;9.75;;;12.90;99.90;;;;;;5053145;28;20025;-66
2022/04/13 06:04:46;;;;;;;19.70;8.57;;;13.00;99.90;;;;;;5052403;28;20050;-68
2022/04/13 06:07:12;;;;;;;23.08;9.38;;;13.10;99.90;;;;;;5052120;28;20056;-69
2022/04/13 06:09:37;;;;;;;21.08;8.20;;;13.20;99.90;;;;;;5052250;28;20060;-65
2022/04/13 06:12:03;;;;;;;21.05;9.13;;;13.30;99.90;;;;;;5051476;28;20047;-66
2022/04/13 06:14:29;;;;;;;20.98;8.40;;;13.40;99.90;;;;;;5051836;28;20033;-64
2022/04/13 06:16:54;;;;;;;23.67;8.25;;;13.40;99.90;;;;;;5048484;28;20445;-61
2022/04/13 06:19:20;;;;;;;19.75;8.18;;;13.50;99.90;;;;;;5052530;28;20044;-64
2022/04/13 06:21:46;;;;;;;19.80;8.85;;;13.60;99.90;;;;;;5052338;28;20032;-63
2022/04/13 06:24:11;;;;;;;27.85;8.13;;;13.70;99.90;;;;;;5052499;28;20056;-66
2022/04/13 06:26:37;;;;;;;17.92;7.45;;;13.80;99.90;;;;;;5052670;28;20041;-67
2022/04/13 06:29:03;;;;;;;22.45;7.50;;;13.80;99.90;;;;;;5051740;28;20033;-63
2022/04/13 06:31:29;;;;;;;18.83;7.22;;;13.90;99.90;;;;;;5053001;28;20033;-67
2022/04/13 06:33:55;;;;;;;18.55;7.85;;;13.90;99.90;;;;;;5051745;28;20017;-66
2022/04/13 06:36:20;;;;;;;19.88;7.35;;;14.00;99.90;;;;;;5052527;28;20096;-64
2022/04/13 06:38:46;;;;;;;18.42;7.38;;;14.10;99.90;;;;;;5052758;28;20104;-65
2022/04/13 06:41:12;;;;;;;20.40;7.88;;;14.10;99.90;;;;;;5053025;28;20433;-67
2022/04/13 06:43:38;;;;;;;21.00;8.18;;;14.20;99.90;;;;;;5052360;28;20882;-68
2022/04/13 06:46:04;;;;;;;18.30;6.63;;;14.20;99.90;;;;;;5052317;28;20028;-64
2022/04/13 06:48:29;;;;;;;18.67;6.47;;;14.20;99.90;;;;;;5052596;28;20032;-66
2022/04/13 06:50:55;;;;;;;20.73;6.53;;;14.30;99.90;;;;;;5052443;28;20041;-62
2022/04/13 06:53:21;;;;;;;17.55;6.95;;;14.30;99.90;;;;;;5052308;28;20036;-65
2022/04/13 06:55:50;;;;;;;15.73;6.05;;;14.30;99.90;;;;;;5052771;28;20096;-65
2022/04/13 06:58:17;;;;;;;16.45;6.47;;;14.40;99.90;;;;;;5053014;28;20047;-64
2022/04/13 07:00:43;;;;;;;19.27;5.68;;;14.50;99.90;;;;;;5052601;28;20453;-64
2022/04/13 07:03:09;;;;;;;20.48;5.80;;;14.60;99.90;;;;;;5051627;28;20032;-66
2022/04/13 07:05:34;;;;;;;20.08;6.45;;;14.60;99.90;;;;;;5051018;28;20028;-66
2022/04/13 07:08:02;;;;;;;13.20;6.32;;;14.70;99.90;;;;;;5050801;28;20071;-64
2022/04/13 07:10:30;;;;;;;12.60;5.70;;;14.80;99.90;;;;;;5050897;28;20024;-64
2022/04/13 07:12:56;;;;;;;17.67;5.90;;;14.90;99.90;;;;;;5051804;28;20460;-65
2022/04/13 07:15:22;;;;;;;18.40;5.85;;;15.10;99.90;;;;;;5052311;28;20021;-68
2022/04/13 07:17:48;;;;;;;16.75;6.20;;;15.30;99.90;;;;;;5052280;28;20075;-65
2022/04/13 07:20:14;;;;;;;18.77;5.95;;;15.60;99.90;;;;;;5052817;28;20476;-63
2022/04/13 07:22:48;;;;;;;16.90;5.40;;;15.80;99.90;;;;;;5055967;28;20025;-63
2022/04/13 07:25:15;;;;;;;13.73;5.32;;;16.00;99.90;;;;;;5055074;28;20364;-66
2022/04/13 07:27:41;;;;;;;18.83;5.15;;;16.30;99.90;;;;;;5056535;28;20056;-64
2022/04/13 07:30:08;;;;;;;15.80;5.25;;;16.50;99.90;;;;;;5056451;28;20025;-69
2022/04/13 07:32:33;;;;;;;15.82;5.00;;;16.70;99.90;;;;;;5056366;28;20033;-65
2022/04/13 07:34:59;;;;;;;15.80;5.18;;;16.90;99.90;;;;;;5056761;28;20025;-64
2022/04/13 07:37:25;;;;;;;13.55;4.95;;;17.20;99.90;;;;;;5056422;28;20021;-62
2022/04/13 07:39:52;;;;;;;14.98;4.78;;;17.40;99.90;;;;;;5056431;28;20043;-67
2022/04/13 07:42:21;;;;;;;19.08;4.85;;;17.60;99.90;;;;;;5056511;28;20017;-65
2022/04/13 07:44:47;;;;;;;18.48;5.35;;;17.60;99.90;;;;;;5056424;28;20108;-64
2022/04/13 07:47:14;;;;;;;15.23;5.10;;;17.50;99.90;;;;;;5055062;28;20408;-67
2022/04/13 07:49:41;;;;;;;15.73;5.00;;;17.30;99.90;;;;;;5056087;28;20031;-67
2022/04/13 07:52:08;;;;;;;19.42;5.10;;;17.10;99.90;;;;;;5055735;28;20029;-65
2022/04/13 07:54:34;;;;;;;15.82;5.00;;;17.00;99.90;;;;;;5056037;28;20032;-67
2022/04/13 07:57:00;;;;;;;13.32;4.63;;;17.00;99.90;;;;;;5056198;28;20021;-68
2022/04/13 07:59:26;;;;;;;15.63;4.43;;;17.10;99.90;;;;;;5056095;28;20518;-65
2022/04/13 08:01:51;;;;;;;14.43;3.90;;;17.20;99.90;;;;;;5056013;28;20060;-65
2022/04/13 08:04:17;;;;;;;12.20;4.15;;;17.50;99.90;;;;;;5055843;28;20492;-62
2022/04/13 08:06:42;;;;;;;15.98;4.53;;;17.70;99.90;;;;;;5055966;28;20021;-65
2022/04/13 08:09:08;;;;;;;16.17;4.28;;;17.90;99.90;;;;;;5054674;28;20159;-64
2022/04/13 08:11:33;;;;;;;17.33;4.90;;;17.90;99.90;;;;;;5055757;28;20128;-64
2022/04/13 08:13:59;;;;;;;18.80;4.35;;;17.90;99.90;;;;;;5056215;28;20056;-67
2022/04/13 08:16:24;;;;;;;12.73;4.95;;;17.70;99.90;;;;;;5054839;28;20111;-65
2022/04/13 08:18:50;;;;;;;26.80;12.15;;;17.50;99.90;;;;;;5055464;28;20373;-64
2022/04/13 08:21:15;;;;;;;21.95;7.60;;;17.30;99.90;;;;;;5055604;28;20137;-66
2022/04/13 08:23:41;;;;;;;22.77;8.63;;;17.10;99.90;;;;;;5055553;28;20025;-63
2022/04/13 08:26:07;;;;;;;19.25;6.63;;;17.10;99.90;;;;;;5055314;28;20053;-63
2022/04/13 08:28:32;;;;;;;23.30;9.05;;;17.10;99.90;;;;;;5055505;28;20148;-64
2022/04/13 08:30:58;;;;;;;17.95;6.50;;;17.00;99.90;;;;;;5055216;28;20056;-65
2022/04/13 08:33:24;;;;;;;18.65;5.63;;;16.90;99.90;;;;;;5054825;28;20468;-61
2022/04/13 08:35:50;;;;;;;20.70;7.38;;;16.90;99.90;;;;;;5055144;28;20167;-66
2022/04/13 08:38:15;;;;;;;16.00;5.90;;;16.90;99.90;;;;;;5055318;28;20052;-66
2022/04/13 08:40:58;;;;;;;23.23;7.32;;;16.90;99.90;;;;;;5055003;28;20475;-66
2022/04/13 08:43:38;;;;;;;17.83;5.72;;;17.00;99.90;;;;;;5054130;28;20029;-66
2022/04/13 08:46:07;;;;;;;17.52;5.40;;;17.10;99.90;;;;;;5055020;28;20028;-66
2022/04/13 08:48:36;;;;;;;16.20;6.40;;;17.20;99.90;;;;;;5054774;28;20092;-68
2022/04/13 08:51:03;;;;;;;21.40;5.55;;;17.30;99.90;;;;;;5055080;28;20098;-67
2022/04/13 08:53:30;;;;;;;17.73;6.07;;;17.50;99.90;;;;;;5055023;28;20017;-65
2022/04/13 08:55:59;;;;;;;13.73;5.55;;;17.70;99.90;;;;;;5055136;28;20074;-63
2022/04/13 08:58:50;;;;;;;16.92;5.65;;;17.90;99.90;;;;;;5054914;28;20078;-66
2022/04/13 09:01:43;;;;;;;16.33;5.97;;;18.50;99.90;;;;;;5054897;28;20060;-64
2022/04/13 09:04:10;;;;;;;14.60;5.00;;;19.60;99.90;;;;;;5054757;28;20021;-65
2022/04/13 09:06:38;;;;;;;15.15;5.47;;;20.30;99.90;;;;;;5054738;28;20104;-62
2022/04/13 09:09:14;;;;;;;14.60;5.32;;;20.80;99.90;;;;;;5054680;28;20028;-68
2022/04/13 09:11:44;;;;;;;15.18;4.28;;;20.90;99.90;;;;;;5054439;28;20033;-65
2022/04/13 09:14:10;;;;;;;12.90;3.53;;;20.80;99.90;;;;;;5055141;28;20028;-66
2022/04/13 09:16:36;;;;;;;16.60;5.50;;;20.90;99.90;;;;;;5054745;28;20036;-69
2022/04/13 09:19:03;;;;;;;12.02;3.88;;;20.90;99.90;;;;;;5054746;28;20043;-64
2022/04/13 09:21:32;;;;;;;14.95;4.63;;;20.90;99.90;;;;;;5054214;28;20037;-65
2022/04/13 09:24:02;;;;;;;15.10;5.18;;;20.90;99.90;;;;;;5053905;28;20033;-66
2022/04/13 09:26:29;;;;;;;18.52;5.95;;;21.10;99.90;;;;;;5054078;28;20049;-66
2022/04/13 09:28:55;;;;;;;13.70;5.40;;;21.00;99.90;;;;;;5054175;28;20021;-64
2022/04/13 09:31:20;;;;;;;13.55;3.85;;;21.00;99.90;;;;;;5053965;28;20392;-69
2022/04/13 09:33:46;;;;;;;14.50;4.72;;;21.00;99.90;;;;;;5052798;28;20453;-65
2022/04/13 09:36:12;;;;;;;16.10;5.03;;;20.80;99.90;;;;;;5054008;28;20021;-66
2022/04/13 09:38:38;;;;;;;16.15;5.22;;;20.90;99.90;;;;;;5053877;28;20318;-68
2022/04/13 09:41:09;;;;;;;18.02;5.28;;;20.70;99.90;;;;;;5054338;28;20021;-65
2022/04/13 09:43:35;;;;;;;15.13;4.10;;;20.70;99.90;;;;;;5053369;28;20053;-68
2022/04/13 09:46:01;;;;;;;12.43;3.40;;;20.70;99.90;;;;;;5054183;28;20071;-67
2022/04/13 09:48:28;;;;;;;13.98;4.78;;;20.70;99.90;;;;;;5053864;28;20074;-65
2022/04/13 09:50:57;;;;;;;11.38;4.38;;;20.50;99.90;;;;;;5053652;28;20127;-68
2022/04/13 09:53:22;;;;;;;13.40;3.88;;;20.50;99.90;;;;;;5053403;28;20025;-62
2022/04/13 09:55:56;;;;;;;13.52;3.60;;;20.40;99.90;;;;;;5053597;28;20555;-65
2022/04/13 09:58:25;;;;;;;11.40;4.07;;;20.30;99.90;;;;;;5053744;28;20028;-63
2022/04/13 10:00:55;;;;;;;12.50;4.68;;;20.00;99.90;;;;;;5053586;28;20028;-65
2022/04/13 10:03:22;;;;;;;15.40;4.80;;;19.80;99.90;;;;;;5053454;28;20021;-67
2022/04/13 10:05:52;;;;;;;15.23;4.07;;;19.50;99.90;;;;;;5053774;28;20352;-65
2022/04/13 10:08:22;;;;;;;12.35;4.55;;;19.30;99.90;;;;;;5053793;28;20028;-64
2022/04/13 10:10:53;;;;;;;16.65;4.68;;;19.10;99.90;;;;;;5053659;28;20067;-66
2022/04/13 10:13:35;;;;;;;13.38;3.47;;;19.10;99.90;;;;;;5053596;28;20025;-67
2022/04/13 10:16:07;;;;;;;16.42;4.78;;;19.00;99.90;;;;;;5043920;28;20036;-63
2022/04/13 10:18:55;;;;;;;;;;;18.80;99.90;;;;;;5033766;28;20029;-64
2022/04/13 10:21:42;;;;;;;13.45;4.13;;;18.70;99.90;;;;;;5033328;28;19932;-64
2022/04/13 10:24:22;;;;;;;11.77;4.82;;;18.40;99.90;;;;;;5032558;28;20024;-65
2022/04/13 10:26:59;;;;;;;14.88;4.50;;;18.20;99.90;;;;;;5033264;28;20092;-63
2022/04/13 10:29:26;;;;;;;11.82;4.43;;;18.10;99.90;;;;;;5041882;28;20390;-66
2022/04/13 10:32:03;;;;;;;12.77;4.22;;;18.10;99.90;;;;;;5052635;28;20064;-63
2022/04/13 10:34:31;;;;;;;17.38;5.32;;;18.00;99.90;;;;;;5069699;28;20139;-65
2022/04/13 10:36:57;;;;;;;12.38;4.30;;;18.00;99.90;;;;;;5070592;28;20028;-64
2022/04/13 10:39:23;;;;;;;12.48;3.78;;;17.90;99.90;;;;;;5053135;28;20021;-64
2022/04/13 10:41:49;;;;;;;15.32;4.47;;;17.80;99.90;;;;;;5052453;28;20032;-65
2022/04/13 10:44:41;;;;;;;17.40;4.88;;;17.80;99.90;;;;;;5052932;28;20029;-65
2022/04/13 10:47:08;;;;;;;13.23;3.97;;;17.70;99.90;;;;;;5067125;28;20102;-63
2022/04/13 10:49:41;;;;;;;14.73;4.25;;;17.70;99.90;;;;;;5072879;28;20456;-65
2022/04/13 10:52:13;;;;;;;13.13;4.05;;;17.50;99.90;;;;;;5072699;28;20070;-66
2022/04/13 10:54:45;;;;;;;15.85;4.45;;;17.50;99.90;;;;;;5072406;28;20379;-64
2022/04/13 10:57:10;;;;;;;14.20;4.13;;;17.50;99.90;;;;;;5072737;28;20040;-66
2022/04/13 10:59:47;;;;;;;13.02;3.15;;;17.70;99.90;;;;;;5071517;28;20120;-63
2022/04/13 11:02:40;;;;;;;14.13;3.78;;;17.80;99.90;;;;;;5072404;28;20074;-65
2022/04/13 11:05:07;;;;;;;11.05;3.53;;;17.80;99.90;;;;;;5032608;28;20521;-67
2022/04/13 11:07:33;;;;;;;11.02;3.55;;;18.00;99.90;;;;;;5032831;28;20071;-66
2022/04/13 11:10:00;;;;;;;13.70;2.80;;;18.10;99.90;;;;;;5032548;28;20070;-63
2022/04/13 11:12:27;;;;;;;8.90;2.72;;;18.30;99.90;;;;;;5032467;28;20025;-67
2022/04/13 11:14:55;;;;;;;12.48;2.63;;;18.50;99.90;;;;;;5032995;28;20027;-66
2022/04/13 11:17:25;;;;;;;11.88;3.10;;;18.90;99.90;;;;;;5032692;28;20029;-65
2022/04/13 11:19:51;;;;;;;13.93;3.50;;;19.20;99.90;;;;;;5032616;28;20029;-66
2022/04/13 11:22:18;;;;;;;9.38;3.03;;;19.40;99.90;;;;;;5032616;28;20100;-65
2022/04/13 11:24:46;;;;;;;7.82;2.65;;;19.50;99.90;;;;;;5032112;28;20017;-64
2022/04/13 11:27:12;;;;;;;7.35;2.30;;;19.50;99.90;;;;;;5032639;28;20038;-66
2022/04/13 11:29:57;;;;;;;10.43;3.55;;;19.60;99.90;;;;;;5032354;28;20060;-66
2022/04/13 11:32:33;;;;;;;19.63;5.15;;;19.70;99.90;;;;;;5049504;28;20408;-65
2022/04/13 11:35:00;;;;;;;12.07;2.83;;;19.90;99.90;;;;;;5052351;28;20066;-64
2022/04/13 11:37:41;;;;;;;15.32;4.03;;;20.30;99.90;;;;;;5052204;28;20032;-66
2022/04/13 11:40:21;;;;;;;11.02;3.08;;;20.50;99.90;;;;;;5052622;28;20040;-67
2022/04/13 11:42:50;;;;;;;8.05;2.85;;;20.80;99.90;;;;;;5052331;28;20475;-64
2022/04/13 11:45:17;;;;;;;14.88;3.38;;;21.10;99.90;;;;;;5052487;28;20033;-64
2022/04/13 11:47:53;;;;;;;9.23;3.17;;;21.40;99.90;;;;;;5052065;28;20131;-66
2022/04/13 11:50:23;;;;;;;10.85;2.92;;;21.80;99.70;;;;;;5052263;28;20036;-67
2022/04/13 11:52:51;;;;;;;7.57;2.38;;;22.10;99.20;;;;;;5052108;28;20017;-67
2022/04/13 11:55:22;;;;;;;10.40;2.80;;;22.10;98.90;;;;;;5050791;28;20033;-64
2022/04/13 11:58:08;;;;;;;6.57;2.30;;;22.20;98.80;;;;;;5050613;28;20021;-66
2022/04/13 12:00:37;;;;;;;10.43;2.70;;;22.50;98.50;;;;;;5052015;28;20053;-65
2022/04/13 12:03:06;;;;;;;8.90;2.50;;;22.50;98.00;;;;;;5052088;28;20021;-65
2022/04/13 12:05:32;;;;;;;8.98;2.88;;;22.50;98.20;;;;;;5052306;28;20029;-67
2022/04/13 12:07:59;;;;;;;7.72;2.85;;;22.40;98.00;;;;;;5054205;28;20411;-64
2022/04/13 12:10:25;;;;;;;9.15;2.47;;;22.30;98.00;;;;;;5055925;28;20048;-64
2022/04/13 12:12:52;;;;;;;8.02;2.95;;;22.30;98.00;;;;;;5054651;28;20028;-61
2022/04/13 12:15:18;;;;;;;12.70;2.70;;;22.50;98.00;;;;;;5055741;28;20463;-64
2022/04/13 12:17:45;;;;;;;10.68;2.95;;;22.70;97.60;;;;;;5055622;28;20020;-65
2022/04/13 12:20:27;;;;;;;5.15;2.10;;;22.70;97.40;;;;;;5055674;28;20025;-63
2022/04/13 12:22:53;;;;;;;9.10;2.20;;;22.50;97.40;;;;;;5055488;28;20044;-63
2022/04/13 12:25:19;;;;;;;13.68;2.60;;;22.30;97.60;;;;;;5055009;28;20465;-64
2022/04/13 12:28:04;;;;;;;9.88;2.20;;;22.10;97.80;;;;;;5055547;28;20430;-64
2022/04/13 12:30:30;;;;;;;6.40;1.98;;;22.10;97.60;;;;;;5055239;28;20029;-63
2022/04/13 12:32:55;;;;;;;7.80;2.47;;;21.90;97.80;;;;;;5055324;28;20075;-62
2022/04/13 12:35:21;;;;;;;8.63;2.00;;;21.90;97.80;;;;;;5054246;28;20025;-65
2022/04/13 12:37:51;;;;;;;9.73;2.30;;;22.00;97.60;;;;;;5055268;28;20115;-66
2022/04/13 12:40:25;;;;;;;8.38;2.05;;;22.10;97.60;;;;;;5055298;28;20417;-67